Milton, Florida
Current Conditions -  °F | °C
As of 8:56 PM on Tuesday 25 Nov 2014 (Local Time) from KNDZ Reporting Station
Overcast Overcast  
Wind Chill: 53°   Ceiling: 12000
Heat Index: 53°   Visibility: 10mi
Dew Point: 39°   Wind: 8mph
Humidity: 59%   Direction: 320°NW
Pressure: 30.11"   Gusts: NA
Location:  30.63°N, 87.04°W
Report Text: KNDZ 260256Z 32007KT 10SM FEW100 BKN120 OVC200 12/04 A3011 RMK AO2 SLP183 60001 T01170039 56006
Loading
Personal Weather Stations






























Interactive Weather Map New forecast layout! Learn more

10-Day Weather Forecast

Advertisements
Track Severe Weather on mobile